sensor_id;sensor_type;location;lat;lon;timestamp;P1;durP1;ratioP1;P2;durP2;ratioP2
11066;SDS011;29763;50.904;5.530;2023-06-19T00:01:14;5.70;;;5.05;;
11066;SDS011;29763;50.904;5.530;2023-06-19T00:03:41;5.88;;;5.22;;
11066;SDS011;29763;50.904;5.530;2023-06-19T00:06:08;6.30;;;5.70;;
11066;SDS011;29763;50.904;5.530;2023-06-19T00:08:37;5.38;;;4.88;;
11066;SDS011;29763;50.904;5.530;2023-06-19T00:11:07;5.65;;;5.15;;
11066;SDS011;29763;50.904;5.530;2023-06-19T00:13:35;5.22;;;4.80;;
11066;SDS011;29763;50.904;5.530;2023-06-19T00:16:03;5.72;;;5.22;;
11066;SDS011;29763;50.904;5.530;2023-06-19T00:18:41;5.13;;;4.72;;
11066;SDS011;29763;50.904;5.530;2023-06-19T00:21:11;5.20;;;4.80;;
11066;SDS011;29763;50.904;5.530;2023-06-19T00:23:40;5.63;;;5.13;;
11066;SDS011;29763;50.904;5.530;2023-06-19T00:26:09;5.78;;;5.15;;
11066;SDS011;29763;50.904;5.530;2023-06-19T00:28:40;5.78;;;5.18;;
11066;SDS011;29763;50.904;5.530;2023-06-19T00:31:08;5.15;;;4.72;;
11066;SDS011;29763;50.904;5.530;2023-06-19T00:33:36;5.13;;;4.72;;
11066;SDS011;29763;50.904;5.530;2023-06-19T00:36:10;5.47;;;4.97;;
11066;SDS011;29763;50.904;5.530;2023-06-19T00:38:36;6.05;;;4.88;;
11066;SDS011;29763;50.904;5.530;2023-06-19T00:41:03;6.80;;;4.75;;
11066;SDS011;29763;50.904;5.530;2023-06-19T00:43:31;4.95;;;4.55;;
11066;SDS011;29763;50.904;5.530;2023-06-19T00:46:00;5.88;;;4.85;;
11066;SDS011;29763;50.904;5.530;2023-06-19T00:48:29;5.78;;;5.18;;
11066;SDS011;29763;50.904;5.530;2023-06-19T00:50:57;6.20;;;4.55;;
11066;SDS011;29763;50.904;5.530;2023-06-19T00:53:24;5.10;;;4.55;;
11066;SDS011;29763;50.904;5.530;2023-06-19T00:55:51;5.45;;;4.80;;
11066;SDS011;29763;50.904;5.530;2023-06-19T00:58:25;5.25;;;4.75;;
11066;SDS011;29763;50.904;5.530;2023-06-19T01:00:52;5.25;;;4.75;;
11066;SDS011;29763;50.904;5.530;2023-06-19T01:03:19;5.75;;;5.15;;
11066;SDS011;29763;50.904;5.530;2023-06-19T01:05:45;5.28;;;4.35;;
11066;SDS011;29763;50.904;5.530;2023-06-19T01:11:05;4.90;;;4.50;;
11066;SDS011;29763;50.904;5.530;2023-06-19T01:16:32;5.00;;;4.60;;
11066;SDS011;29763;50.904;5.530;2023-06-19T01:18:59;5.10;;;4.60;;
11066;SDS011;29763;50.904;5.530;2023-06-19T01:21:25;5.30;;;4.80;;
11066;SDS011;29763;50.904;5.530;2023-06-19T01:24:02;5.35;;;4.85;;
11066;SDS011;29763;50.904;5.530;2023-06-19T01:26:29;5.35;;;4.82;;
11066;SDS011;29763;50.904;5.530;2023-06-19T01:28:55;5.53;;;5.03;;
11066;SDS011;29763;50.904;5.530;2023-06-19T01:31:24;5.43;;;4.93;;
11066;SDS011;29763;50.904;5.530;2023-06-19T01:33:56;5.15;;;4.57;;
11066;SDS011;29763;50.904;5.530;2023-06-19T01:36:31;5.18;;;4.78;;
11066;SDS011;29763;50.904;5.530;2023-06-19T01:38:59;4.72;;;4.32;;
11066;SDS011;29763;50.904;5.530;2023-06-19T01:41:28;5.22;;;4.72;;
11066;SDS011;29763;50.904;5.530;2023-06-19T01:43:56;5.32;;;4.70;;
11066;SDS011;29763;50.904;5.530;2023-06-19T01:46:24;4.70;;;4.30;;
11066;SDS011;29763;50.904;5.530;2023-06-19T01:48:52;6.88;;;4.38;;
11066;SDS011;29763;50.904;5.530;2023-06-19T01:51:19;4.68;;;4.28;;
11066;SDS011;29763;50.904;5.530;2023-06-19T01:53:46;4.63;;;4.22;;
11066;SDS011;29763;50.904;5.530;2023-06-19T01:56:13;4.65;;;4.25;;
11066;SDS011;29763;50.904;5.530;2023-06-19T01:58:40;5.00;;;4.60;;
11066;SDS011;29763;50.904;5.530;2023-06-19T02:01:12;4.70;;;4.30;;
11066;SDS011;29763;50.904;5.530;2023-06-19T02:03:37;4.78;;;4.38;;
11066;SDS011;29763;50.904;5.530;2023-06-19T02:06:03;4.60;;;4.20;;
11066;SDS011;29763;50.904;5.530;2023-06-19T02:08:31;4.50;;;4.10;;
11066;SDS011;29763;50.904;5.530;2023-06-19T02:10:56;5.20;;;4.47;;
11066;SDS011;29763;50.904;5.530;2023-06-19T02:13:23;4.43;;;4.03;;
11066;SDS011;29763;50.904;5.530;2023-06-19T02:15:49;4.88;;;4.47;;
11066;SDS011;29763;50.904;5.530;2023-06-19T02:18:16;4.95;;;4.40;;
11066;SDS011;29763;50.904;5.530;2023-06-19T02:20:42;5.15;;;4.38;;
11066;SDS011;29763;50.904;5.530;2023-06-19T02:23:09;4.93;;;4.53;;
11066;SDS011;29763;50.904;5.530;2023-06-19T02:25:35;4.70;;;4.30;;
11066;SDS011;29763;50.904;5.530;2023-06-19T02:28:02;5.43;;;4.60;;
11066;SDS011;29763;50.904;5.530;2023-06-19T02:30:30;4.82;;;4.32;;
11066;SDS011;29763;50.904;5.530;2023-06-19T02:32:56;4.50;;;4.10;;
11066;SDS011;29763;50.904;5.530;2023-06-19T02:35:22;4.63;;;4.10;;
11066;SDS011;29763;50.904;5.530;2023-06-19T02:37:48;4.47;;;4.07;;
11066;SDS011;29763;50.904;5.530;2023-06-19T02:40:16;4.95;;;3.92;;
11066;SDS011;29763;50.904;5.530;2023-06-19T02:42:43;4.10;;;3.75;;
11066;SDS011;29763;50.904;5.530;2023-06-19T02:45:10;4.70;;;4.10;;
11066;SDS011;29763;50.904;5.530;2023-06-19T02:47:38;4.85;;;3.80;;
11066;SDS011;29763;50.904;5.530;2023-06-19T02:50:05;4.20;;;3.70;;
11066;SDS011;29763;50.904;5.530;2023-06-19T02:52:34;3.95;;;3.65;;
11066;SDS011;29763;50.904;5.530;2023-06-19T02:55:03;4.47;;;3.90;;
11066;SDS011;29763;50.904;5.530;2023-06-19T02:57:33;5.10;;;3.60;;
11066;SDS011;29763;50.904;5.530;2023-06-19T02:59:59;4.00;;;3.63;;
11066;SDS011;29763;50.904;5.530;2023-06-19T03:02:29;4.80;;;4.20;;
11066;SDS011;29763;50.904;5.530;2023-06-19T03:04:56;4.22;;;3.83;;
11066;SDS011;29763;50.904;5.530;2023-06-19T03:07:23;5.07;;;3.75;;
11066;SDS011;29763;50.904;5.530;2023-06-19T03:09:53;4.30;;;3.58;;
11066;SDS011;29763;50.904;5.530;2023-06-19T03:12:19;4.50;;;3.90;;
11066;SDS011;29763;50.904;5.530;2023-06-19T03:14:45;4.70;;;4.13;;
11066;SDS011;29763;50.904;5.530;2023-06-19T03:17:12;4.63;;;4.10;;
11066;SDS011;29763;50.904;5.530;2023-06-19T03:19:39;4.97;;;4.40;;
11066;SDS011;29763;50.904;5.530;2023-06-19T03:22:06;7.60;;;4.88;;
11066;SDS011;29763;50.904;5.530;2023-06-19T03:24:33;5.18;;;4.68;;
11066;SDS011;29763;50.904;5.530;2023-06-19T03:27:00;6.43;;;5.20;;
11066;SDS011;29763;50.904;5.530;2023-06-19T03:29:31;5.60;;;4.93;;
11066;SDS011;29763;50.904;5.530;2023-06-19T03:32:00;7.85;;;6.00;;
11066;SDS011;29763;50.904;5.530;2023-06-19T03:34:27;7.40;;;5.53;;
11066;SDS011;29763;50.904;5.530;2023-06-19T03:36:52;6.70;;;6.10;;
11066;SDS011;29763;50.904;5.530;2023-06-19T03:39:21;7.05;;;6.40;;
11066;SDS011;29763;50.904;5.530;2023-06-19T03:41:49;6.93;;;6.13;;
11066;SDS011;29763;50.904;5.530;2023-06-19T03:44:15;6.63;;;6.03;;
11066;SDS011;29763;50.904;5.530;2023-06-19T03:46:41;7.25;;;6.47;;
11066;SDS011;29763;50.904;5.530;2023-06-19T03:49:07;6.85;;;5.90;;
11066;SDS011;29763;50.904;5.530;2023-06-19T03:51:34;6.55;;;5.95;;
11066;SDS011;29763;50.904;5.530;2023-06-19T03:54:01;6.40;;;5.45;;
11066;SDS011;29763;50.904;5.530;2023-06-19T03:56:30;5.80;;;5.20;;
11066;SDS011;29763;50.904;5.530;2023-06-19T03:58:58;5.13;;;4.63;;
11066;SDS011;29763;50.904;5.530;2023-06-19T04:01:26;6.28;;;4.72;;
11066;SDS011;29763;50.904;5.530;2023-06-19T04:03:52;5.38;;;4.47;;
11066;SDS011;29763;50.904;5.530;2023-06-19T04:06:18;5.95;;;4.40;;
11066;SDS011;29763;50.904;5.530;2023-06-19T04:08:44;7.13;;;5.20;;
11066;SDS011;29763;50.904;5.530;2023-06-19T04:11:31;6.15;;;4.43;;
11066;SDS011;29763;50.904;5.530;2023-06-19T04:13:58;4.88;;;4.20;;
11066;SDS011;29763;50.904;5.530;2023-06-19T04:16:27;4.60;;;4.20;;
11066;SDS011;29763;50.904;5.530;2023-06-19T04:18:57;4.45;;;4.00;;
11066;SDS011;29763;50.904;5.530;2023-06-19T04:21:25;4.55;;;4.15;;
11066;SDS011;29763;50.904;5.530;2023-06-19T04:23:51;5.63;;;3.88;;
11066;SDS011;29763;50.904;5.530;2023-06-19T04:26:17;5.10;;;3.90;;
11066;SDS011;29763;50.904;5.530;2023-06-19T04:28:44;5.18;;;4.20;;
11066;SDS011;29763;50.904;5.530;2023-06-19T04:31:09;5.45;;;4.10;;
11066;SDS011;29763;50.904;5.530;2023-06-19T04:33:47;4.50;;;3.67;;
11066;SDS011;29763;50.904;5.530;2023-06-19T04:36:23;5.00;;;3.90;;
11066;SDS011;29763;50.904;5.530;2023-06-19T04:38:49;4.95;;;4.10;;
11066;SDS011;29763;50.904;5.530;2023-06-19T04:41:23;5.45;;;3.97;;
11066;SDS011;29763;50.904;5.530;2023-06-19T04:43:50;4.28;;;3.80;;
11066;SDS011;29763;50.904;5.530;2023-06-19T04:46:18;5.30;;;3.70;;
11066;SDS011;29763;50.904;5.530;2023-06-19T04:48:48;4.57;;;4.18;;
11066;SDS011;29763;50.904;5.530;2023-06-19T04:51:17;4.47;;;3.83;;
11066;SDS011;29763;50.904;5.530;2023-06-19T04:53:47;4.28;;;3.88;;
11066;SDS011;29763;50.904;5.530;2023-06-19T04:56:22;5.03;;;4.30;;
11066;SDS011;29763;50.904;5.530;2023-06-19T04:58:57;9.50;;;4.40;;
11066;SDS011;29763;50.904;5.530;2023-06-19T05:01:25;5.43;;;4.28;;
11066;SDS011;29763;50.904;5.530;2023-06-19T05:04:11;4.82;;;4.43;;
11066;SDS011;29763;50.904;5.530;2023-06-19T05:06:40;5.05;;;4.65;;
11066;SDS011;29763;50.904;5.530;2023-06-19T05:09:07;5.15;;;4.57;;
11066;SDS011;29763;50.904;5.530;2023-06-19T05:11:49;6.38;;;5.30;;
11066;SDS011;29763;50.904;5.530;2023-06-19T05:14:24;6.47;;;4.80;;
11066;SDS011;29763;50.904;5.530;2023-06-19T05:17:04;7.05;;;5.47;;
11066;SDS011;29763;50.904;5.530;2023-06-19T05:19:54;5.47;;;4.97;;
11066;SDS011;29763;50.904;5.530;2023-06-19T05:22:24;6.03;;;5.50;;
11066;SDS011;29763;50.904;5.530;2023-06-19T05:24:51;6.45;;;5.63;;
11066;SDS011;29763;50.904;5.530;2023-06-19T05:27:21;7.55;;;5.65;;
11066;SDS011;29763;50.904;5.530;2023-06-19T05:29:58;6.55;;;5.40;;
11066;SDS011;29763;50.904;5.530;2023-06-19T05:32:59;7.47;;;5.55;;
11066;SDS011;29763;50.904;5.530;2023-06-19T05:36:10;6.57;;;5.97;;
11066;SDS011;29763;50.904;5.530;2023-06-19T05:41:54;7.45;;;5.45;;
11066;SDS011;29763;50.904;5.530;2023-06-19T05:44:26;7.22;;;5.65;;
11066;SDS011;29763;50.904;5.530;2023-06-19T05:47:04;6.85;;;5.55;;
11066;SDS011;29763;50.904;5.530;2023-06-19T05:49:42;6.38;;;5.70;;
11066;SDS011;29763;50.904;5.530;2023-06-19T05:52:09;7.45;;;5.57;;
11066;SDS011;29763;50.904;5.530;2023-06-19T05:54:41;7.35;;;6.00;;
11066;SDS011;29763;50.904;5.530;2023-06-19T05:57:12;7.05;;;6.45;;
11066;SDS011;29763;50.904;5.530;2023-06-19T05:59:41;8.15;;;6.28;;
11066;SDS011;29763;50.904;5.530;2023-06-19T06:02:10;8.23;;;6.65;;
11066;SDS011;29763;50.904;5.530;2023-06-19T06:04:41;6.82;;;6.22;;
11066;SDS011;29763;50.904;5.530;2023-06-19T06:07:22;8.02;;;7.20;;
11066;SDS011;29763;50.904;5.530;2023-06-19T06:09:52;7.22;;;6.57;;
11066;SDS011;29763;50.904;5.530;2023-06-19T06:12:45;6.82;;;6.30;;
11066;SDS011;29763;50.904;5.530;2023-06-19T06:15:20;6.57;;;6.05;;
11066;SDS011;29763;50.904;5.530;2023-06-19T06:17:50;7.40;;;6.30;;
11066;SDS011;29763;50.904;5.530;2023-06-19T06:20:16;7.28;;;6.15;;
11066;SDS011;29763;50.904;5.530;2023-06-19T06:22:44;6.00;;;5.40;;
11066;SDS011;29763;50.904;5.530;2023-06-19T06:25:10;6.10;;;5.50;;
11066;SDS011;29763;50.904;5.530;2023-06-19T06:27:40;5.95;;;5.45;;
11066;SDS011;29763;50.904;5.530;2023-06-19T06:30:12;6.35;;;5.45;;
11066;SDS011;29763;50.904;5.530;2023-06-19T06:32:38;6.28;;;5.68;;
11066;SDS011;29763;50.904;5.530;2023-06-19T06:35:08;5.90;;;5.30;;
11066;SDS011;29763;50.904;5.530;2023-06-19T06:37:40;6.13;;;5.43;;
11066;SDS011;29763;50.904;5.530;2023-06-19T06:40:12;8.15;;;5.95;;
11066;SDS011;29763;50.904;5.530;2023-06-19T06:42:39;6.13;;;5.60;;
11066;SDS011;29763;50.904;5.530;2023-06-19T06:45:13;6.30;;;5.80;;
11066;SDS011;29763;50.904;5.530;2023-06-19T06:47:40;6.78;;;5.90;;
11066;SDS011;29763;50.904;5.530;2023-06-19T06:50:23;6.18;;;5.60;;
11066;SDS011;29763;50.904;5.530;2023-06-19T06:52:50;8.93;;;6.10;;
11066;SDS011;29763;50.904;5.530;2023-06-19T06:55:19;7.18;;;5.70;;
11066;SDS011;29763;50.904;5.530;2023-06-19T06:57:44;6.55;;;5.95;;
11066;SDS011;29763;50.904;5.530;2023-06-19T07:00:10;6.30;;;5.65;;
11066;SDS011;29763;50.904;5.530;2023-06-19T07:02:40;7.28;;;6.57;;
11066;SDS011;29763;50.904;5.530;2023-06-19T07:05:19;8.68;;;5.93;;
11066;SDS011;29763;50.904;5.530;2023-06-19T07:08:00;7.88;;;5.50;;
11066;SDS011;29763;50.904;5.530;2023-06-19T07:10:33;6.88;;;6.00;;
11066;SDS011;29763;50.904;5.530;2023-06-19T07:13:10;6.15;;;5.65;;
11066;SDS011;29763;50.904;5.530;2023-06-19T07:15:39;7.07;;;5.80;;
11066;SDS011;29763;50.904;5.530;2023-06-19T07:18:10;5.70;;;5.20;;
11066;SDS011;29763;50.904;5.530;2023-06-19T07:20:36;6.25;;;5.70;;
11066;SDS011;29763;50.904;5.530;2023-06-19T07:23:07;6.13;;;5.53;;
11066;SDS011;29763;50.904;5.530;2023-06-19T07:25:34;6.50;;;5.82;;
11066;SDS011;29763;50.904;5.530;2023-06-19T07:28:00;6.10;;;5.60;;
11066;SDS011;29763;50.904;5.530;2023-06-19T07:30:35;5.30;;;4.90;;
11066;SDS011;29763;50.904;5.530;2023-06-19T07:33:03;6.25;;;5.50;;
11066;SDS011;29763;50.904;5.530;2023-06-19T07:35:33;5.60;;;5.10;;
11066;SDS011;29763;50.904;5.530;2023-06-19T07:38:02;6.10;;;5.50;;
11066;SDS011;29763;50.904;5.530;2023-06-19T07:40:28;5.90;;;5.30;;
11066;SDS011;29763;50.904;5.530;2023-06-19T07:42:54;6.03;;;5.32;;
11066;SDS011;29763;50.904;5.530;2023-06-19T07:45:25;6.45;;;5.85;;
11066;SDS011;29763;50.904;5.530;2023-06-19T07:47:55;6.55;;;5.95;;
11066;SDS011;29763;50.904;5.530;2023-06-19T07:50:21;6.00;;;5.40;;
11066;SDS011;29763;50.904;5.530;2023-06-19T07:52:48;5.97;;;5.35;;
11066;SDS011;29763;50.904;5.530;2023-06-19T07:55:18;6.32;;;5.72;;
11066;SDS011;29763;50.904;5.530;2023-06-19T07:57:55;6.15;;;5.57;;
11066;SDS011;29763;50.904;5.530;2023-06-19T08:00:35;6.47;;;5.88;;
11066;SDS011;29763;50.904;5.530;2023-06-19T08:03:08;5.95;;;5.45;;
11066;SDS011;29763;50.904;5.530;2023-06-19T08:05:42;6.38;;;5.72;;
11066;SDS011;29763;50.904;5.530;2023-06-19T08:08:34;6.53;;;5.88;;
11066;SDS011;29763;50.904;5.530;2023-06-19T08:11:21;6.72;;;6.13;;
11066;SDS011;29763;50.904;5.530;2023-06-19T08:13:52;6.00;;;5.50;;
11066;SDS011;29763;50.904;5.530;2023-06-19T08:16:28;5.80;;;5.20;;
11066;SDS011;29763;50.904;5.530;2023-06-19T08:19:00;6.45;;;5.22;;
11066;SDS011;29763;50.904;5.530;2023-06-19T08:21:33;5.15;;;4.75;;
11066;SDS011;29763;50.904;5.530;2023-06-19T08:23:59;5.13;;;4.70;;
11066;SDS011;29763;50.904;5.530;2023-06-19T08:26:28;5.85;;;5.28;;
11066;SDS011;29763;50.904;5.530;2023-06-19T08:29:01;6.28;;;5.25;;
11066;SDS011;29763;50.904;5.530;2023-06-19T08:31:30;5.47;;;4.97;;
11066;SDS011;29763;50.904;5.530;2023-06-19T08:34:37;5.35;;;4.85;;
11066;SDS011;29763;50.904;5.530;2023-06-19T08:37:08;5.32;;;4.82;;
11066;SDS011;29763;50.904;5.530;2023-06-19T08:39:35;5.43;;;5.03;;
11066;SDS011;29763;50.904;5.530;2023-06-19T08:42:04;5.63;;;5.00;;
11066;SDS011;29763;50.904;5.530;2023-06-19T08:44:44;5.30;;;4.90;;
11066;SDS011;29763;50.904;5.530;2023-06-19T08:47:16;5.25;;;4.85;;
11066;SDS011;29763;50.904;5.530;2023-06-19T08:49:43;5.53;;;5.03;;
11066;SDS011;29763;50.904;5.530;2023-06-19T08:52:19;5.43;;;4.80;;
11066;SDS011;29763;50.904;5.530;2023-06-19T08:54:45;5.45;;;4.90;;
11066;SDS011;29763;50.904;5.530;2023-06-19T08:57:12;4.78;;;4.38;;
11066;SDS011;29763;50.904;5.530;2023-06-19T08:59:50;5.88;;;5.38;;
11066;SDS011;29763;50.904;5.530;2023-06-19T09:02:22;5.20;;;4.80;;
11066;SDS011;29763;50.904;5.530;2023-06-19T09:04:48;5.88;;;5.38;;
11066;SDS011;29763;50.904;5.530;2023-06-19T09:07:15;4.78;;;4.30;;
11066;SDS011;29763;50.904;5.530;2023-06-19T09:09:45;5.85;;;4.82;;
11066;SDS011;29763;50.904;5.530;2023-06-19T09:12:12;5.13;;;4.63;;
11066;SDS011;29763;50.904;5.530;2023-06-19T09:14:42;5.47;;;4.63;;
11066;SDS011;29763;50.904;5.530;2023-06-19T09:17:18;5.50;;;5.00;;
11066;SDS011;29763;50.904;5.530;2023-06-19T09:19:53;6.57;;;5.18;;
11066;SDS011;29763;50.904;5.530;2023-06-19T09:22:24;5.28;;;4.78;;
11066;SDS011;29763;50.904;5.530;2023-06-19T09:25:08;5.00;;;4.45;;
11066;SDS011;29763;50.904;5.530;2023-06-19T09:27:42;5.00;;;4.60;;
11066;SDS011;29763;50.904;5.530;2023-06-19T09:30:14;5.65;;;4.63;;
11066;SDS011;29763;50.904;5.530;2023-06-19T09:32:41;4.85;;;4.15;;
11066;SDS011;29763;50.904;5.530;2023-06-19T09:35:08;6.38;;;5.35;;
11066;SDS011;29763;50.904;5.530;2023-06-19T09:37:37;4.97;;;4.57;;
11066;SDS011;29763;50.904;5.530;2023-06-19T09:40:13;5.65;;;5.18;;
11066;SDS011;29763;50.904;5.530;2023-06-19T09:42:45;5.05;;;4.60;;
11066;SDS011;29763;50.904;5.530;2023-06-19T09:45:21;5.72;;;5.20;;
11066;SDS011;29763;50.904;5.530;2023-06-19T09:47:51;6.13;;;5.00;;
11066;SDS011;29763;50.904;5.530;2023-06-19T09:50:33;5.65;;;5.05;;
11066;SDS011;29763;50.904;5.530;2023-06-19T09:53:01;6.40;;;5.10;;
11066;SDS011;29763;50.904;5.530;2023-06-19T09:55:29;6.30;;;5.75;;
11066;SDS011;29763;50.904;5.530;2023-06-19T09:57:58;5.70;;;5.20;;
11066;SDS011;29763;50.904;5.530;2023-06-19T10:00:29;5.57;;;5.07;;
11066;SDS011;29763;50.904;5.530;2023-06-19T10:03:00;5.57;;;5.07;;
11066;SDS011;29763;50.904;5.530;2023-06-19T10:05:29;5.90;;;4.70;;
11066;SDS011;29763;50.904;5.530;2023-06-19T10:08:00;5.38;;;4.88;;
11066;SDS011;29763;50.904;5.530;2023-06-19T10:10:31;6.22;;;5.63;;
11066;SDS011;29763;50.904;5.530;2023-06-19T10:13:11;5.65;;;5.15;;
11066;SDS011;29763;50.904;5.530;2023-06-19T10:15:41;5.75;;;5.10;;
11066;SDS011;29763;50.904;5.530;2023-06-19T10:18:08;5.82;;;5.00;;
11066;SDS011;29763;50.904;5.530;2023-06-19T10:20:43;5.78;;;5.20;;
11066;SDS011;29763;50.904;5.530;2023-06-19T10:23:16;6.13;;;5.55;;
11066;SDS011;29763;50.904;5.530;2023-06-19T10:25:54;5.95;;;5.35;;
11066;SDS011;29763;50.904;5.530;2023-06-19T10:28:30;5.95;;;5.10;;
11066;SDS011;29763;50.904;5.530;2023-06-19T10:30:59;5.90;;;5.32;;
11066;SDS011;29763;50.904;5.530;2023-06-19T10:33:31;5.80;;;5.30;;
11066;SDS011;29763;50.904;5.530;2023-06-19T10:36:12;6.90;;;5.65;;
11066;SDS011;29763;50.904;5.530;2023-06-19T10:38:50;6.68;;;6.07;;
11066;SDS011;29763;50.904;5.530;2023-06-19T10:41:23;5.82;;;5.10;;
11066;SDS011;29763;50.904;5.530;2023-06-19T10:44:06;7.47;;;5.60;;
11066;SDS011;29763;50.904;5.530;2023-06-19T10:46:40;6.40;;;5.13;;
11066;SDS011;29763;50.904;5.530;2023-06-19T10:49:07;5.93;;;5.40;;
11066;SDS011;29763;50.904;5.530;2023-06-19T10:51:41;6.97;;;5.63;;
11066;SDS011;29763;50.904;5.530;2023-06-19T10:54:33;6.63;;;5.65;;
11066;SDS011;29763;50.904;5.530;2023-06-19T10:57:03;5.82;;;5.20;;
11066;SDS011;29763;50.904;5.530;2023-06-19T10:59:38;6.90;;;5.50;;
11066;SDS011;29763;50.904;5.530;2023-06-19T11:02:38;6.30;;;5.70;;
11066;SDS011;29763;50.904;5.530;2023-06-19T11:05:11;6.22;;;5.70;;
11066;SDS011;29763;50.904;5.530;2023-06-19T11:07:50;6.97;;;6.20;;
11066;SDS011;29763;50.904;5.530;2023-06-19T11:10:24;6.63;;;5.97;;
11066;SDS011;29763;50.904;5.530;2023-06-19T11:15:49;6.43;;;5.82;;
11066;SDS011;29763;50.904;5.530;2023-06-19T11:18:19;7.00;;;6.05;;
11066;SDS011;29763;50.904;5.530;2023-06-19T11:20:49;7.75;;;5.70;;
11066;SDS011;29763;50.904;5.530;2023-06-19T11:23:28;7.22;;;5.68;;
11066;SDS011;29763;50.904;5.530;2023-06-19T11:26:05;5.97;;;5.53;;
11066;SDS011;29763;50.904;5.530;2023-06-19T11:28:37;5.78;;;5.38;;
11066;SDS011;29763;50.904;5.530;2023-06-19T11:31:18;6.25;;;5.75;;
11066;SDS011;29763;50.904;5.530;2023-06-19T11:33:59;7.40;;;6.10;;
11066;SDS011;29763;50.904;5.530;2023-06-19T11:36:27;7.13;;;5.85;;
11066;SDS011;29763;50.904;5.530;2023-06-19T11:38:54;7.82;;;5.97;;
11066;SDS011;29763;50.904;5.530;2023-06-19T11:41:26;8.23;;;6.00;;
11066;SDS011;29763;50.904;5.530;2023-06-19T11:44:14;6.43;;;5.82;;
11066;SDS011;29763;50.904;5.530;2023-06-19T11:46:49;6.22;;;5.72;;
11066;SDS011;29763;50.904;5.530;2023-06-19T11:49:28;6.35;;;5.72;;
11066;SDS011;29763;50.904;5.530;2023-06-19T11:52:00;5.68;;;5.07;;
11066;SDS011;29763;50.904;5.530;2023-06-19T11:54:44;6.78;;;6.03;;
11066;SDS011;29763;50.904;5.530;2023-06-19T11:57:18;5.95;;;5.45;;
11066;SDS011;29763;50.904;5.530;2023-06-19T11:59:51;6.65;;;6.05;;
11066;SDS011;29763;50.904;5.530;2023-06-19T12:02:18;6.13;;;5.53;;
11066;SDS011;29763;50.904;5.530;2023-06-19T12:05:07;6.38;;;5.78;;
11066;SDS011;29763;50.904;5.530;2023-06-19T12:07:38;6.10;;;5.50;;
11066;SDS011;29763;50.904;5.530;2023-06-19T12:10:06;5.90;;;5.40;;
11066;SDS011;29763;50.904;5.530;2023-06-19T12:13:08;7.45;;;5.82;;
11066;SDS011;29763;50.904;5.530;2023-06-19T12:15:40;5.75;;;5.25;;
11066;SDS011;29763;50.904;5.530;2023-06-19T12:18:06;7.13;;;5.30;;
11066;SDS011;29763;50.904;5.530;2023-06-19T12:20:33;6.53;;;5.93;;
11066;SDS011;29763;50.904;5.530;2023-06-19T12:23:00;6.25;;;5.75;;
11066;SDS011;29763;50.904;5.530;2023-06-19T12:25:34;7.47;;;5.78;;
11066;SDS011;29763;50.904;5.530;2023-06-19T12:28:17;6.75;;;6.07;;
11066;SDS011;29763;50.904;5.530;2023-06-19T12:30:50;6.28;;;5.68;;
11066;SDS011;29763;50.904;5.530;2023-06-19T12:33:37;6.57;;;5.97;;
11066;SDS011;29763;50.904;5.530;2023-06-19T12:36:12;5.82;;;5.40;;
11066;SDS011;29763;50.904;5.530;2023-06-19T12:38:46;6.78;;;5.57;;
11066;SDS011;29763;50.904;5.530;2023-06-19T12:41:31;6.35;;;5.68;;
11066;SDS011;29763;50.904;5.530;2023-06-19T12:44:04;6.40;;;5.30;;
11066;SDS011;29763;50.904;5.530;2023-06-19T12:46:38;6.53;;;5.68;;
11066;SDS011;29763;50.904;5.530;2023-06-19T12:49:05;6.00;;;5.40;;
11066;SDS011;29763;50.904;5.530;2023-06-19T12:51:42;6.18;;;5.57;;
11066;SDS011;29763;50.904;5.530;2023-06-19T12:54:09;5.97;;;5.38;;
11066;SDS011;29763;50.904;5.530;2023-06-19T12:56:35;5.70;;;5.20;;
11066;SDS011;29763;50.904;5.530;2023-06-19T12:59:09;5.80;;;4.95;;
11066;SDS011;29763;50.904;5.530;2023-06-19T13:01:42;6.00;;;5.45;;
11066;SDS011;29763;50.904;5.530;2023-06-19T13:04:13;5.90;;;5.40;;
11066;SDS011;29763;50.904;5.530;2023-06-19T13:06:40;5.95;;;5.13;;
11066;SDS011;29763;50.904;5.530;2023-06-19T13:09:13;5.82;;;5.03;;
11066;SDS011;29763;50.904;5.530;2023-06-19T13:11:41;5.63;;;4.75;;
11066;SDS011;29763;50.904;5.530;2023-06-19T13:14:10;5.90;;;5.40;;
11066;SDS011;29763;50.904;5.530;2023-06-19T13:16:39;5.50;;;5.00;;
11066;SDS011;29763;50.904;5.530;2023-06-19T13:19:08;5.85;;;4.97;;
11066;SDS011;29763;50.904;5.530;2023-06-19T13:21:46;4.95;;;4.50;;
11066;SDS011;29763;50.904;5.530;2023-06-19T13:24:13;5.15;;;4.65;;
11066;SDS011;29763;50.904;5.530;2023-06-19T13:26:44;4.70;;;4.30;;
11066;SDS011;29763;50.904;5.530;2023-06-19T13:29:31;4.95;;;4.50;;
11066;SDS011;29763;50.904;5.530;2023-06-19T13:31:57;5.80;;;5.10;;
11066;SDS011;29763;50.904;5.530;2023-06-19T13:34:32;5.28;;;4.75;;
11066;SDS011;29763;50.904;5.530;2023-06-19T13:36:58;6.35;;;5.03;;
11066;SDS011;29763;50.904;5.530;2023-06-19T13:39:31;4.95;;;4.50;;
11066;SDS011;29763;50.904;5.530;2023-06-19T13:41:59;5.10;;;4.70;;
11066;SDS011;29763;50.904;5.530;2023-06-19T13:44:32;5.15;;;4.75;;
11066;SDS011;29763;50.904;5.530;2023-06-19T13:47:17;5.55;;;5.05;;
11066;SDS011;29763;50.904;5.530;2023-06-19T13:49:43;5.10;;;4.70;;
11066;SDS011;29763;50.904;5.530;2023-06-19T13:52:12;5.03;;;4.60;;
11066;SDS011;29763;50.904;5.530;2023-06-19T13:54:42;5.30;;;4.80;;
11066;SDS011;29763;50.904;5.530;2023-06-19T13:57:08;5.03;;;4.60;;
11066;SDS011;29763;50.904;5.530;2023-06-19T13:59:41;5.38;;;4.70;;
11066;SDS011;29763;50.904;5.530;2023-06-19T14:02:12;4.65;;;4.25;;
11066;SDS011;29763;50.904;5.530;2023-06-19T14:04:42;4.55;;;4.15;;
11066;SDS011;29763;50.904;5.530;2023-06-19T14:07:08;5.35;;;4.57;;
11066;SDS011;29763;50.904;5.530;2023-06-19T14:09:48;5.18;;;4.68;;
11066;SDS011;29763;50.904;5.530;2023-06-19T14:12:14;5.30;;;4.25;;
11066;SDS011;29763;50.904;5.530;2023-06-19T14:14:50;6.50;;;4.63;;
11066;SDS011;29763;50.904;5.530;2023-06-19T14:17:21;5.05;;;4.55;;
11066;SDS011;29763;50.904;5.530;2023-06-19T14:19:50;4.90;;;4.40;;
11066;SDS011;29763;50.904;5.530;2023-06-19T14:22:23;4.88;;;4.47;;
11066;SDS011;29763;50.904;5.530;2023-06-19T14:24:49;5.18;;;4.50;;
11066;SDS011;29763;50.904;5.530;2023-06-19T14:27:26;5.13;;;4.63;;
11066;SDS011;29763;50.904;5.530;2023-06-19T14:29:54;5.07;;;4.68;;
11066;SDS011;29763;50.904;5.530;2023-06-19T14:32:21;4.68;;;4.18;;
11066;SDS011;29763;50.904;5.530;2023-06-19T14:34:51;4.80;;;4.40;;
11066;SDS011;29763;50.904;5.530;2023-06-19T14:37:20;4.60;;;4.20;;
11066;SDS011;29763;50.904;5.530;2023-06-19T14:39:47;5.22;;;4.40;;
11066;SDS011;29763;50.904;5.530;2023-06-19T14:42:16;4.97;;;4.57;;
11066;SDS011;29763;50.904;5.530;2023-06-19T14:44:43;4.45;;;4.05;;
11066;SDS011;29763;50.904;5.530;2023-06-19T14:47:14;4.97;;;4.57;;
11066;SDS011;29763;50.904;5.530;2023-06-19T14:50:08;4.47;;;4.07;;
11066;SDS011;29763;50.904;5.530;2023-06-19T14:52:37;4.93;;;4.53;;
11066;SDS011;29763;50.904;5.530;2023-06-19T14:55:03;4.78;;;4.30;;
11066;SDS011;29763;50.904;5.530;2023-06-19T14:57:30;4.88;;;4.03;;
11066;SDS011;29763;50.904;5.530;2023-06-19T14:59:55;4.70;;;4.30;;
11066;SDS011;29763;50.904;5.530;2023-06-19T15:02:36;4.72;;;4.25;;
11066;SDS011;29763;50.904;5.530;2023-06-19T15:05:06;4.00;;;3.70;;
11066;SDS011;29763;50.904;5.530;2023-06-19T15:07:32;3.90;;;3.60;;
11066;SDS011;29763;50.904;5.530;2023-06-19T15:10:04;4.50;;;4.20;;
11066;SDS011;29763;50.904;5.530;2023-06-19T15:12:36;4.22;;;3.83;;
11066;SDS011;29763;50.904;5.530;2023-06-19T15:15:12;5.63;;;4.32;;
11066;SDS011;29763;50.904;5.530;2023-06-19T15:17:39;4.38;;;4.07;;
11066;SDS011;29763;50.904;5.530;2023-06-19T15:20:06;5.07;;;4.38;;
11066;SDS011;29763;50.904;5.530;2023-06-19T15:22:34;5.35;;;4.80;;
11066;SDS011;29763;50.904;5.530;2023-06-19T15:25:03;6.32;;;4.00;;